Time;durP1;ratioP1;P1;durP2;ratioP2;P2;SDS_P1;SDS_P2;PMS_P1;PMS_P2;Temp;Humidity;BMP_temperature;BMP_pressure;BME280_temperature;BME280_humidity;BME280_pressure;Samples;Min_cycle;Max_cycle;Signal;HPM_P1;HPM_P2
2023/10/20 00:02:14;;;;;;;;;;;18.30;46.70;;;;;;5042915;28;19921;-65
2023/10/20 00:04:40;;;;;;;;;;;18.40;46.70;;;;;;5037707;28;19924;-65
2023/10/20 00:07:07;;;;;;;;;;;18.40;46.70;;;;;;5042652;28;19975;-66
2023/10/20 00:09:34;;;;;;;;;;;18.30;46.70;;;;;;5050448;28;19943;-65
2023/10/20 00:12:01;;;;;;;;;;;18.30;46.70;;;;;;5050200;28;19921;-65
2023/10/20 00:14:29;;;;;;;;;;;18.30;46.60;;;;;;5042293;28;19925;-64
2023/10/20 00:16:57;;;;;;;;;;;18.30;46.60;;;;;;5047658;28;19966;-65
2023/10/20 00:19:23;;;;;;;;;;;18.30;46.60;;;;;;5041132;28;19921;-64
2023/10/20 00:21:50;;;;;;;;;;;18.30;46.70;;;;;;5045530;28;19925;-64
2023/10/20 00:24:17;;;;;;;;;;;18.30;46.70;;;;;;5047112;28;19921;-64
2023/10/20 00:26:43;;;;;;;;;;;18.30;46.70;;;;;;5048750;28;19980;-64
2023/10/20 00:29:10;;;;;;;;;;;18.30;46.70;;;;;;5049534;28;19920;-65
2023/10/20 00:31:39;;;;;;;;;;;18.30;46.60;;;;;;5048244;28;20329;-64
2023/10/20 00:34:06;;;;;;;;;;;18.30;46.70;;;;;;5050141;28;19966;-64
2023/10/20 00:36:32;;;;;;;;;;;18.30;46.70;;;;;;5045850;28;19974;-65
2023/10/20 00:38:59;;;;;;;;;;;18.30;46.70;;;;;;5048902;28;19928;-65
2023/10/20 00:41:26;;;;;;;;;;;18.30;46.70;;;;;;5046155;28;19933;-65
2023/10/20 00:43:53;;;;;;;;;;;18.30;46.70;;;;;;5049669;28;19925;-64
2023/10/20 00:46:19;;;;;;;;;;;18.30;46.70;;;;;;5048283;28;19925;-64
2023/10/20 00:48:48;;;;;;;;;;;18.30;46.70;;;;;;5031269;28;19932;-64
2023/10/20 00:51:15;;;;;;;;;;;18.30;46.70;;;;;;5041907;28;19928;-64
2023/10/20 00:53:42;;;;;;;;;;;18.30;46.70;;;;;;5048828;28;19921;-65
2023/10/20 00:56:09;;;;;;;;;;;18.30;46.60;;;;;;5048545;28;19967;-64
2023/10/20 00:58:34;;;;;;;;;;;18.30;46.70;;;;;;5047194;28;19951;-64
2023/10/20 01:01:02;;;;;;;;;;;18.30;46.70;;;;;;5046455;28;19921;-64
2023/10/20 01:03:32;;;;;;;;;;;18.30;46.70;;;;;;5049378;28;20012;-64
2023/10/20 01:06:00;;;;;;;;;;;18.30;46.70;;;;;;5046430;28;19958;-65
2023/10/20 01:08:27;;;;;;;;;;;18.30;46.70;;;;;;5046084;28;19921;-65
2023/10/20 01:10:54;;;;;;;;;;;18.30;46.70;;;;;;5042837;28;19924;-66
2023/10/20 01:13:21;;;;;;;;;;;18.30;46.70;;;;;;5048221;28;19975;-65
2023/10/20 01:15:48;;;;;;;;;;;18.30;46.70;;;;;;5045646;28;19968;-65
2023/10/20 01:18:15;;;;;;;;;;;18.30;46.70;;;;;;5049485;28;20039;-65
2023/10/20 01:20:42;;;;;;;;;;;18.30;46.70;;;;;;5048332;28;19921;-64
2023/10/20 01:23:10;;;;;;;;;;;18.30;46.70;;;;;;5050683;28;19925;-64
2023/10/20 01:25:38;;;;;;;;;;;18.30;46.70;;;;;;5048936;28;19925;-65
2023/10/20 01:28:05;;;;;;;;;;;18.30;46.60;;;;;;5049232;28;19925;-66
2023/10/20 01:30:32;;;;;;;;;;;18.30;46.70;;;;;;5049082;28;19933;-64
2023/10/20 01:32:58;;;;;;;;;;;18.30;46.60;;;;;;5049774;28;19921;-66
2023/10/20 01:35:26;;;;;;;;;;;18.30;46.70;;;;;;5048213;28;20305;-65
2023/10/20 01:37:53;;;;;;;;;;;18.30;46.70;;;;;;5053480;28;19927;-64
2023/10/20 01:40:19;;;;;;;;;;;18.30;46.70;;;;;;5051999;28;19924;-65
2023/10/20 01:42:48;;;;;;;;;;;18.30;46.70;;;;;;5052796;28;19927;-65
2023/10/20 01:45:14;;;;;;;;;;;18.30;46.70;;;;;;5051608;28;19920;-64
2023/10/20 01:47:41;;;;;;;;;;;18.30;46.70;;;;;;5053056;28;19921;-64
2023/10/20 01:50:08;;;;;;;;;;;18.30;46.70;;;;;;5052790;28;20433;-66
2023/10/20 01:52:35;;;;;;;;;;;18.30;46.70;;;;;;5038375;28;19932;-64
2023/10/20 01:55:02;;;;;;;;;;;18.30;46.70;;;;;;5052174;28;20377;-64
2023/10/20 01:57:28;;;;;;;;;;;18.30;46.70;;;;;;5052573;28;20350;-65
2023/10/20 01:59:57;;;;;;;;;;;18.30;46.70;;;;;;5051987;28;19928;-65
2023/10/20 02:02:23;;;;;;;;;;;18.30;46.60;;;;;;5045938;28;19924;-65
2023/10/20 02:04:50;;;;;;;;;;;18.20;46.50;;;;;;5053050;28;19978;-64
2023/10/20 02:07:17;;;;;;;;;;;18.20;46.50;;;;;;5046265;28;19925;-65
2023/10/20 02:09:44;;;;;;;;;;;18.30;46.70;;;;;;5053470;28;19921;-65
2023/10/20 02:12:11;;;;;;;;;;;18.30;46.60;;;;;;5052322;28;20259;-65
2023/10/20 02:14:38;;;;;;;;;;;18.30;46.60;;;;;;5052299;28;20334;-65
2023/10/20 02:17:06;;;;;;;;;;;18.20;46.50;;;;;;5049019;28;19921;-65
2023/10/20 02:19:33;;;;;;;;;;;18.20;46.50;;;;;;5052333;28;20553;-65
2023/10/20 02:22:00;;;;;;;;;;;18.20;46.50;;;;;;5051787;28;19921;-65
2023/10/20 02:24:27;;;;;;;;;;;18.20;46.50;;;;;;5051970;28;20382;-65
2023/10/20 02:26:54;;;;;;;;;;;18.30;46.60;;;;;;5051614;28;19920;-64
2023/10/20 02:29:20;;;;;;;;;;;18.30;46.60;;;;;;5052481;28;19947;-65
2023/10/20 02:31:47;;;;;;;;;;;18.20;46.50;;;;;;5049879;28;19925;-65
2023/10/20 02:34:16;;;;;;;;;;;18.20;46.50;;;;;;5049565;28;19966;-65
2023/10/20 02:36:42;;;;;;;;;;;18.20;46.50;;;;;;5050111;28;19920;-65
2023/10/20 02:39:09;;;;;;;;;;;18.20;46.50;;;;;;5050708;28;19952;-64
2023/10/20 02:41:36;;;;;;;;;;;18.30;46.60;;;;;;5049001;28;19920;-64
2023/10/20 02:44:03;;;;;;;;;;;18.20;46.50;;;;;;5051871;28;19960;-67
2023/10/20 02:46:30;;;;;;;;;;;18.20;46.50;;;;;;5050604;28;19928;-65
2023/10/20 02:48:57;;;;;;;;;;;18.20;46.50;;;;;;5040558;28;19925;-66
2023/10/20 02:51:25;;;;;;;;;;;18.20;46.50;;;;;;5047372;28;19921;-65
2023/10/20 02:53:52;;;;;;;;;;;18.20;46.50;;;;;;5048951;28;19921;-65
2023/10/20 02:56:19;;;;;;;;;;;18.20;46.50;;;;;;5050570;28;19924;-66
2023/10/20 02:58:46;;;;;;;;;;;18.20;46.50;;;;;;5050441;28;19925;-64
2023/10/20 03:01:14;;;;;;;;;;;18.20;46.40;;;;;;5050235;28;19924;-65
2023/10/20 03:03:41;;;;;;;;;;;18.20;46.50;;;;;;5051044;28;19947;-65
2023/10/20 03:06:07;;;;;;;;;;;18.20;46.50;;;;;;5051560;28;19990;-66
2023/10/20 03:08:36;;;;;;;;;;;18.20;46.50;;;;;;5044338;28;19921;-64
2023/10/20 03:11:04;;;;;;;;;;;18.20;46.50;;;;;;5051111;28;19921;-65
2023/10/20 03:13:30;;;;;;;;;;;18.20;46.50;;;;;;5048889;28;20347;-65
2023/10/20 03:15:57;;;;;;;;;;;18.20;46.50;;;;;;5049748;28;19921;-64
2023/10/20 03:18:24;;;;;;;;;;;18.20;46.40;;;;;;5051183;28;19978;-64
2023/10/20 03:20:50;;;;;;;;;;;18.20;46.40;;;;;;5050748;28;19921;-67
2023/10/20 03:23:17;;;;;;;;;;;18.20;46.40;;;;;;5051262;28;19927;-64
2023/10/20 03:25:46;;;;;;;;;;;18.20;46.40;;;;;;5050123;28;19921;-64
2023/10/20 03:28:13;;;;;;;;;;;18.20;46.40;;;;;;5051075;28;19929;-65
2023/10/20 03:30:40;;;;;;;;;;;18.20;46.40;;;;;;5050716;28;19927;-65
2023/10/20 03:33:06;;;;;;;;;;;18.20;46.40;;;;;;5051626;28;19921;-64
2023/10/20 03:35:33;;;;;;;;;;;18.20;46.40;;;;;;5042564;28;19928;-64
2023/10/20 03:38:00;;;;;;;;;;;18.20;47.00;;;;;;5050416;28;19943;-64
2023/10/20 03:40:30;;;;;;;;;;;18.20;46.40;;;;;;5047087;28;19943;-64
2023/10/20 03:42:58;;;;;;;;;;;18.20;46.40;;;;;;5050457;28;19964;-66
2023/10/20 03:45:25;;;;;;;;;;;18.10;46.20;;;;;;5047648;28;19998;-65
2023/10/20 03:47:53;;;;;;;;;;;18.20;46.40;;;;;;5046241;28;19921;-65
2023/10/20 03:50:20;;;;;;;;;;;18.20;46.30;;;;;;5048070;28;19925;-63
2023/10/20 03:52:48;;;;;;;;;;;18.20;46.30;;;;;;5049835;28;20014;-64
2023/10/20 03:55:15;;;;;;;;;;;18.20;46.30;;;;;;5046924;28;19929;-66
2023/10/20 03:57:42;;;;;;;;;;;18.10;46.20;;;;;;5046557;28;19927;-65
2023/10/20 04:00:22;;;;;;;;;;;18.20;46.30;;;;;;5050865;28;19920;-64
2023/10/20 04:02:51;;;;;;;;;;;18.20;46.30;;;;;;5049210;28;19931;-64
2023/10/20 04:05:19;;;;;;;;;;;18.20;46.30;;;;;;5048864;28;19921;-65
2023/10/20 04:07:46;;;;;;;;;;;18.10;46.20;;;;;;5042586;28;19967;-66
2023/10/20 04:10:13;;;;;;;;;;;18.20;46.30;;;;;;5050051;28;19921;-68
2023/10/20 04:12:41;;;;;;;;;;;18.10;46.20;;;;;;5033293;28;19924;-65
2023/10/20 04:15:09;;;;;;;;;;;18.10;46.20;;;;;;5049854;28;19970;-67
2023/10/20 04:17:38;;;;;;;;;;;18.10;46.20;;;;;;5045873;28;19927;-66
2023/10/20 04:20:06;;;;;;;;;;;18.10;46.10;;;;;;5049351;28;19931;-64
2023/10/20 04:22:33;;;;;;;;;;;18.10;46.10;;;;;;5050280;28;19929;-65
2023/10/20 04:25:01;;;;;;;;;;;18.10;46.20;;;;;;5049869;28;19933;-65
2023/10/20 04:27:44;;;;;;;;;;;18.10;46.10;;;;;;5041821;28;19921;-65
2023/10/20 04:52:15;;;;;;;;;;;18.20;46.10;;;;;;5047120;28;19925;-65
2023/10/20 04:54:45;;;;;;;;;;;18.10;46.10;;;;;;5048547;28;20197;-64
2023/10/20 05:00:30;;;;;;;;;;;18.10;46.10;;;;;;5029091;28;19921;-64
2023/10/20 05:02:56;;;;;;;;;;;18.10;46.10;;;;;;5046407;28;19927;-64
2023/10/20 05:05:32;;;;;;;;;;;18.10;46.10;;;;;;5050295;28;19974;-67
2023/10/20 05:08:04;;;;;;;;;;;18.10;46.10;;;;;;5052869;28;19951;-64
2023/10/20 05:10:31;;;;;;;;;;;18.10;46.10;;;;;;5053460;28;20015;-64
2023/10/20 05:12:58;;;;;;;;;;;18.10;46.10;;;;;;5054235;28;19931;-63
2023/10/20 05:15:25;;;;;;;;;;;18.10;46.10;;;;;;5045177;28;19928;-64
2023/10/20 05:17:52;;;;;;;;;;;18.10;46.10;;;;;;5052367;28;19921;-63
2023/10/20 05:20:20;;;;;;;;;;;18.10;46.20;;;;;;5052316;28;19921;-63
2023/10/20 05:22:49;;;;;;;;;;;18.10;46.10;;;;;;5053052;28;19928;-64
2023/10/20 05:25:16;;;;;;;;;;;18.10;46.10;;;;;;5053494;28;19920;-64
2023/10/20 05:27:42;;;;;;;;;;;18.10;46.10;;;;;;5052180;28;19970;-64
2023/10/20 05:30:09;;;;;;;;;;;18.10;46.10;;;;;;5052810;28;19928;-64
2023/10/20 05:32:37;;;;;;;;;;;18.10;46.10;;;;;;5053319;28;19975;-65
2023/10/20 05:35:04;;;;;;;;;;;18.10;46.10;;;;;;5044855;28;19994;-64
2023/10/20 05:37:30;;;;;;;;;;;18.10;46.10;;;;;;5051640;28;19939;-64
2023/10/20 05:39:58;;;;;;;;;;;18.10;46.10;;;;;;5041992;28;19925;-63
2023/10/20 05:42:25;;;;;;;;;;;18.10;46.70;;;;;;5046362;28;19921;-66
2023/10/20 05:45:03;;;;;;;;;;;18.10;46.10;;;;;;5052900;28;19928;-63
2023/10/20 05:47:29;;;;;;;;;;;18.10;46.10;;;;;;5049959;28;19920;-63
2023/10/20 05:49:56;;;;;;;;;;;18.10;46.00;;;;;;5052149;28;19975;-63
2023/10/20 05:52:23;;;;;;;;;;;18.10;46.00;;;;;;5052203;28;19930;-64
2023/10/20 05:54:50;;;;;;;;;;;18.10;46.00;;;;;;5052026;28;19932;-65
2023/10/20 05:57:18;;;;;;;;;;;18.10;46.00;;;;;;5046263;28;19970;-64
2023/10/20 05:59:46;;;;;;;;;;;18.10;46.00;;;;;;5051419;28;19927;-63
2023/10/20 06:02:12;;;;;;;;;;;18.10;45.90;;;;;;5046512;28;19921;-63
2023/10/20 06:04:39;;;;;;;;;;;18.10;46.00;;;;;;5052194;28;20219;-66
2023/10/20 06:07:07;;;;;;;;;;;18.10;46.00;;;;;;5041492;28;19921;-64
2023/10/20 06:09:33;;;;;;;;;;;18.10;46.00;;;;;;5051245;28;19975;-63
2023/10/20 06:12:00;;;;;;;;;;;18.10;46.00;;;;;;5045149;28;19921;-64
2023/10/20 06:14:30;;;;;;;;;;;18.10;46.00;;;;;;5050197;28;19925;-53
2023/10/20 06:16:57;;;;;;;;;;;18.10;46.00;;;;;;5051421;28;19928;-53
2023/10/20 06:19:24;;;;;;;;;;;18.10;46.10;;;;;;5051704;28;19970;-60
2023/10/20 06:21:51;;;;;;;;;;;18.10;46.20;;;;;;5048455;28;19920;-54
2023/10/20 06:24:17;;;;;;;;;;;18.10;46.20;;;;;;5050942;28;19978;-58
2023/10/20 06:26:45;;;;;;;;;;;18.10;46.20;;;;;;5051020;28;19935;-58
2023/10/20 06:29:26;;;;;;;;;;;18.20;46.40;;;;;;5050779;28;19935;-57
2023/10/20 06:31:57;;;;;;;;;;;18.20;46.50;;;;;;5049610;28;19924;-54
2023/10/20 06:34:24;;;;;;;;;;;18.20;46.70;;;;;;5051292;28;19921;-58
2023/10/20 06:36:59;;;;;;;;;;;18.30;46.90;;;;;;5047226;28;19966;-53
2023/10/20 06:39:26;;;;;;;;;;;18.30;47.00;;;;;;5038348;28;19933;-56
2023/10/20 06:41:53;;;;;;;;;;;18.30;47.10;;;;;;5047818;28;19986;-51
2023/10/20 06:44:19;;;;;;;;;;;18.30;47.30;;;;;;5044587;28;19945;-55
2023/10/20 06:46:46;;;;;;;;;;;18.30;47.40;;;;;;5045805;28;19967;-53
2023/10/20 06:49:18;;;;;;;;;;;18.40;47.70;;;;;;5046808;28;20256;-53
2023/10/20 06:51:45;;;;;;;;;;;18.40;47.60;;;;;;5050228;28;19948;-55
2023/10/20 06:54:12;;;;;;;;;;;18.40;47.70;;;;;;5042599;28;19925;-54
2023/10/20 06:56:39;;;;;;;;;;;18.50;47.70;;;;;;5045248;28;19936;-54
2023/10/20 06:59:06;;;;;;;;;;;18.50;47.70;;;;;;5049901;28;19933;-55
2023/10/20 07:01:33;;;;;;;;;;;18.50;47.70;;;;;;5049658;28;19987;-53
2023/10/20 07:04:00;;;;;;;;;;;18.50;47.70;;;;;;5049907;28;19943;-49
2023/10/20 07:06:28;;;;;;;;;;;18.60;47.80;;;;;;5044437;28;19925;-51
2023/10/20 07:08:55;;;;;;;;;;;18.60;47.80;;;;;;5049101;28;19921;-54
2023/10/20 07:11:24;;;;;;;;;;;18.60;47.80;;;;;;5045876;28;19943;-56
2023/10/20 07:13:51;;;;;;;;;;;18.60;47.70;;;;;;5049063;28;20448;-52
2023/10/20 07:16:18;;;;;;;;;;;18.70;47.80;;;;;;5045979;28;19932;-56
2023/10/20 07:18:44;;;;;;;;;;;18.70;47.80;;;;;;5026606;28;19960;-52
2023/10/20 07:21:11;;;;;;;;;;;18.70;47.70;;;;;;5045908;28;20027;-52
2023/10/20 07:23:41;;;;;;;;;;;18.70;47.70;;;;;;5048066;28;19932;-55
2023/10/20 07:26:08;;;;;;;;;;;18.80;47.80;;;;;;5045316;28;20009;-57
2023/10/20 07:28:35;;;;;;;;;;;18.80;47.70;;;;;;5044764;28;19932;-49
2023/10/20 07:31:10;;;;;;;;;;;18.80;47.70;;;;;;5046708;28;19975;-57
2023/10/20 07:33:37;;;;;;;;;;;18.80;47.70;;;;;;5046099;28;20004;-56
2023/10/20 07:36:05;;;;;;;;;;;18.80;47.60;;;;;;5045784;28;19925;-54
2023/10/20 07:38:32;;;;;;;;;;;18.80;47.60;;;;;;5046447;28;19968;-54
2023/10/20 07:41:06;;;;;;;;;;;18.90;47.70;;;;;;5045508;28;19955;-53
2023/10/20 07:43:33;;;;;;;;;;;18.90;47.70;;;;;;5047867;28;20390;-56
2023/10/20 07:45:59;;;;;;;;;;;18.90;47.60;;;;;;5045035;28;20305;-55
2023/10/20 07:48:26;;;;;;;;;;;18.90;47.60;;;;;;5048255;28;19921;-57
2023/10/20 07:50:55;;;;;;;;;;;18.90;47.60;;;;;;5043325;28;19963;-55
2023/10/20 07:53:22;;;;;;;;;;;18.90;47.50;;;;;;5047585;28;19952;-55
2023/10/20 07:55:48;;;;;;;;;;;19.00;47.60;;;;;;5046276;28;19921;-57
2023/10/20 07:58:17;;;;;;;;;;;19.00;47.60;;;;;;5046424;28;19921;-56
2023/10/20 08:00:43;;;;;;;;;;;19.00;47.60;;;;;;5044749;28;19925;-52
2023/10/20 08:03:11;;;;;;;;;;;19.00;47.60;;;;;;5046462;28;19929;-52
2023/10/20 08:05:37;;;;;;;;;;;19.00;47.50;;;;;;5046720;28;20003;-52
2023/10/20 08:08:05;;;;;;;;;;;19.00;47.50;;;;;;5042703;28;19961;-55
2023/10/20 08:10:32;;;;;;;;;;;19.10;47.60;;;;;;5042613;28;19933;-54
2023/10/20 08:12:59;;;;;;;;;;;19.10;47.60;;;;;;5046311;28;19927;-52
2023/10/20 08:15:28;;;;;;;;;;;19.10;47.50;;;;;;5047331;28;19927;-51
2023/10/20 08:17:55;;;;;;;;;;;19.10;47.60;;;;;;5044178;28;20025;-54
2023/10/20 08:20:22;;;;;;;;;;;19.10;47.50;;;;;;5044586;28;19948;-54
2023/10/20 08:22:49;;;;;;;;;;;19.10;47.50;;;;;;5046833;28;19921;-51
2023/10/20 08:25:16;;;;;;;;;;;19.10;47.50;;;;;;5044001;28;19932;-50
2023/10/20 08:27:42;;;;;;;;;;;19.10;47.40;;;;;;5046779;28;19936;-53
2023/10/20 08:30:10;;;;;;;;;;;19.10;47.40;;;;;;5048433;28;19925;-55
2023/10/20 08:32:38;;;;;;;;;;;19.10;47.40;;;;;;5041468;28;19925;-53
2023/10/20 08:35:07;;;;;;;;;;;19.10;47.40;;;;;;5045301;28;19960;-52
2023/10/20 08:37:34;;;;;;;;;;;19.20;47.50;;;;;;5043908;28;19925;-52
2023/10/20 08:40:02;;;;;;;;;;;19.10;47.40;;;;;;5046890;28;19932;-52
2023/10/20 08:42:29;;;;;;;;;;;19.20;47.40;;;;;;5047682;28;20005;-51
2023/10/20 08:44:56;;;;;;;;;;;19.20;47.50;;;;;;5048713;28;19927;-52
2023/10/20 08:47:23;;;;;;;;;;;19.20;47.40;;;;;;5045137;28;19925;-56
2023/10/20 08:49:51;;;;;;;;;;;19.20;47.40;;;;;;5051515;28;19932;-57
2023/10/20 08:52:18;;;;;;;;;;;19.20;47.40;;;;;;5047208;28;19924;-55
2023/10/20 08:54:46;;;;;;;;;;;19.20;47.40;;;;;;5044370;28;19924;-54
2023/10/20 08:57:13;;;;;;;;;;;19.20;47.40;;;;;;5050190;28;19929;-51
2023/10/20 08:59:40;;;;;;;;;;;19.20;47.40;;;;;;5047290;28;19921;-51
2023/10/20 09:02:08;;;;;;;;;;;19.20;47.40;;;;;;5044779;28;19921;-50
2023/10/20 09:04:34;;;;;;;;;;;19.20;47.30;;;;;;5048783;28;19932;-50
2023/10/20 09:07:11;;;;;;;;;;;19.30;47.40;;;;;;5046529;28;19933;-54
2023/10/20 09:09:38;;;;;;;;;;;19.30;47.40;;;;;;5051656;28;19925;-50
2023/10/20 09:12:05;;;;;;;;;;;19.30;47.40;;;;;;5043401;28;19925;-53
2023/10/20 09:14:32;;;;;;;;;;;19.30;47.40;;;;;;5049089;28;19928;-54
2023/10/20 09:17:01;;;;;;;;;;;19.30;47.40;;;;;;5046836;28;20398;-49
2023/10/20 09:19:28;;;;;;;;;;;19.30;47.40;;;;;;5051709;28;20043;-55
2023/10/20 09:21:57;;;;;;;;;;;19.30;47.30;;;;;;5047876;28;19936;-52
2023/10/20 09:24:30;;;;;;;;;;;19.30;47.30;;;;;;5042216;28;19951;-58
2023/10/20 09:26:56;;;;;;;;;;;19.30;47.30;;;;;;5046418;28;19927;-57
2023/10/20 09:29:23;;;;;;;;;;;19.30;47.30;;;;;;5048559;28;19920;-56
2023/10/20 09:31:50;;;;;;;;;;;19.30;47.30;;;;;;5045266;28;20354;-57
2023/10/20 09:34:17;;;;;;;;;;;19.40;47.40;;;;;;5050931;28;19920;-52
2023/10/20 09:36:44;;;;;;;;;;;19.40;47.40;;;;;;5050588;28;20319;-51
2023/10/20 09:39:11;;;;;;;;;;;19.40;47.30;;;;;;5051285;28;19921;-53
2023/10/20 09:41:43;;;;;;;;;;;19.40;47.30;;;;;;5047772;28;19921;-56
2023/10/20 09:44:09;;;;;;;;;;;19.40;47.40;;;;;;5050480;28;19942;-54
2023/10/20 09:46:41;;;;;;;;;;;19.40;47.30;;;;;;5045598;28;19921;-54
2023/10/20 09:49:14;;;;;;;;;;;19.40;47.30;;;;;;5047318;28;19921;-56
2023/10/20 09:51:41;;;;;;;;;;;19.40;47.30;;;;;;5046195;28;20316;-58
2023/10/20 09:54:08;;;;;;;;;;;19.40;47.30;;;;;;5050179;28;19987;-53
2023/10/20 09:56:35;;;;;;;;;;;19.40;47.30;;;;;;5049380;28;19947;-58
2023/10/20 09:59:05;;;;;;;;;;;19.40;47.30;;;;;;5050436;28;19940;-56
2023/10/20 10:01:32;;;;;;;;;;;19.40;47.20;;;;;;5044744;28;19929;-60
2023/10/20 10:04:00;;;;;;;;;;;19.40;47.20;;;;;;5044499;28;19928;-58
2023/10/20 10:06:26;;;;;;;;;;;19.40;47.20;;;;;;5051083;28;19921;-58
2023/10/20 10:08:53;;;;;;;;;;;19.40;47.20;;;;;;5048924;28;19998;-54
2023/10/20 10:11:21;;;;;;;;;;;19.40;47.20;;;;;;5051893;28;19958;-57
2023/10/20 10:13:55;;;;;;;;;;;19.40;47.10;;;;;;5045339;28;20282;-55
2023/10/20 10:16:23;;;;;;;;;;;19.50;47.20;;;;;;5049206;28;20015;-58
2023/10/20 10:18:50;;;;;;;;;;;19.50;47.20;;;;;;5051299;28;19929;-54
2023/10/20 10:21:24;;;;;;;;;;;19.50;47.10;;;;;;5050424;28;19920;-58
2023/10/20 10:24:12;;;;;;;;;;;19.50;47.10;;;;;;5048715;28;19960;-57
2023/10/20 10:26:46;;;;;;;;;;;19.50;47.10;;;;;;5046442;28;19929;-57
2023/10/20 10:29:12;;;;;;;;;;;19.50;47.00;;;;;;5050883;28;19998;-59
2023/10/20 10:31:41;;;;;;;;;;;19.50;47.10;;;;;;5048610;28;19935;-57
2023/10/20 10:34:09;;;;;;;;;;;19.50;47.70;;;;;;5039513;28;19956;-57
2023/10/20 10:36:46;;;;;;;;;;;19.50;47.00;;;;;;5049600;28;19921;-58
2023/10/20 10:39:23;;;;;;;;;;;19.50;47.00;;;;;;5051833;28;19920;-58
2023/10/20 10:41:52;;;;;;;;;;;19.50;47.00;;;;;;5034316;28;19921;-56
2023/10/20 10:44:19;;;;;;;;;;;19.50;47.00;;;;;;5048740;28;20378;-57
2023/10/20 10:46:48;;;;;;;;;;;19.50;47.00;;;;;;5043474;28;19921;-57
2023/10/20 10:49:14;;;;;;;;;;;19.50;47.00;;;;;;5051053;28;19992;-58
2023/10/20 10:51:45;;;;;;;;;;;19.50;47.00;;;;;;5048723;28;19928;-58
2023/10/20 10:54:12;;;;;;;;;;;19.50;46.90;;;;;;5048185;28;20012;-54
2023/10/20 10:56:41;;;;;;;;;;;19.50;46.90;;;;;;5048101;28;19920;-57
2023/10/20 10:59:08;;;;;;;;;;;19.50;46.90;;;;;;5048150;28;19933;-56
2023/10/20 11:01:35;;;;;;;;;;;19.50;46.90;;;;;;5048492;28;19932;-54
2023/10/20 11:04:03;;;;;;;;;;;19.50;46.90;;;;;;5049232;28;20277;-57
2023/10/20 11:06:32;;;;;;;;;;;19.50;46.90;;;;;;5047928;28;19920;-59
2023/10/20 11:08:59;;;;;;;;;;;19.50;46.90;;;;;;5046837;28;19920;-56
2023/10/20 11:11:26;;;;;;;;;;;19.50;46.90;;;;;;5046102;28;20004;-54
2023/10/20 11:13:53;;;;;;;;;;;19.50;47.00;;;;;;5047223;28;19920;-57
2023/10/20 11:16:20;;;;;;;;;;;19.50;47.00;;;;;;5049959;28;19920;-55
2023/10/20 11:18:47;;;;;;;;;;;19.50;47.00;;;;;;5050842;28;20350;-51
2023/10/20 11:21:15;;;;;;;;;;;19.50;47.00;;;;;;5050856;28;19920;-55
2023/10/20 11:23:48;;;;;;;;;;;19.50;47.00;;;;;;5046809;28;20155;-56
2023/10/20 11:26:17;;;;;;;;;;;19.50;47.00;;;;;;5043003;28;19928;-54
2023/10/20 11:28:44;;;;;;;;;;;19.50;47.00;;;;;;5046860;28;19925;-56
2023/10/20 11:31:11;;;;;;;;;;;19.50;47.00;;;;;;5045619;28;19920;-52
2023/10/20 11:33:38;;;;;;;;;;;19.50;47.00;;;;;;5046324;28;19931;-54
2023/10/20 11:36:05;;;;;;;;;;;19.50;47.00;;;;;;5042851;28;19925;-56
2023/10/20 11:38:33;;;;;;;;;;;19.50;47.00;;;;;;5046273;28;19932;-54
2023/10/20 11:41:00;;;;;;;;;;;19.50;47.00;;;;;;5043832;28;20282;-54
2023/10/20 11:43:27;;;;;;;;;;;19.50;47.00;;;;;;5044311;28;19935;-58
2023/10/20 11:45:54;;;;;;;;;;;19.50;47.00;;;;;;5047997;28;19992;-57
2023/10/20 11:48:21;;;;;;;;;;;19.50;47.00;;;;;;5046218;28;19978;-57
2023/10/20 11:50:48;;;;;;;;;;;19.50;47.00;;;;;;5047892;28;20209;-57
2023/10/20 11:53:16;;;;;;;;;;;19.60;47.10;;;;;;5043919;28;20023;-56
2023/10/20 11:55:44;;;;;;;;;;;19.50;47.10;;;;;;5030277;28;19921;-57
2023/10/20 11:58:11;;;;;;;;;;;19.50;47.10;;;;;;5049169;28;19927;-70
2023/10/20 12:00:41;;;;;;;;;;;19.60;47.20;;;;;;5045274;28;19925;-67
2023/10/20 12:03:08;;;;;;;;;;;19.60;46.90;;;;;;5042247;28;19964;-65
2023/10/20 12:05:36;;;;;;;;;;;19.50;46.30;;;;;;5045384;28;20024;-64
2023/10/20 12:08:04;;;;;;;;;;;19.50;45.90;;;;;;5048250;28;19935;-64
2023/10/20 12:10:31;;;;;;;;;;;19.40;45.30;;;;;;5045098;28;19921;-67
2023/10/20 12:13:02;;;;;;;;;;;19.40;45.10;;;;;;5043250;28;19994;-65
2023/10/20 12:15:29;;;;;;;;;;;19.30;45.30;;;;;;5046969;28;19920;-65
2023/10/20 12:17:56;;;;;;;;;;;19.20;45.60;;;;;;5044011;28;19963;-68
2023/10/20 12:20:22;;;;;;;;;;;19.20;45.80;;;;;;5047827;28;20213;-67
2023/10/20 12:22:51;;;;;;;;;;;19.20;45.90;;;;;;5048802;28;20820;-62
2023/10/20 12:25:17;;;;;;;;;;;19.10;45.80;;;;;;5048438;28;19921;-55
2023/10/20 12:27:44;;;;;;;;;;;19.10;45.90;;;;;;5042143;28;19921;-57
2023/10/20 12:30:13;;;;;;;;;;;19.10;46.10;;;;;;5047932;28;19939;-53
2023/10/20 12:32:42;;;;;;;;;;;19.10;46.70;;;;;;5048479;28;19931;-54
2023/10/20 12:35:11;;;;;;;;;;;19.20;46.30;;;;;;5046395;28;19925;-53
2023/10/20 12:37:37;;;;;;;;;;;19.20;46.30;;;;;;5043891;28;19978;-57
2023/10/20 12:40:05;;;;;;;;;;;19.20;46.30;;;;;;5047864;28;19921;-57
2023/10/20 12:42:32;;;;;;;;;;;19.20;46.40;;;;;;5048096;28;19920;-57
2023/10/20 12:45:00;;;;;;;;;;;19.20;46.40;;;;;;5040774;28;19921;-57
2023/10/20 12:47:28;;;;;;;;;;;19.30;46.50;;;;;;5047520;28;19924;-56
2023/10/20 12:49:55;;;;;;;;;;;19.30;46.60;;;;;;5048535;28;19936;-57
2023/10/20 12:52:22;;;;;;;;;;;19.30;46.60;;;;;;5046990;28;19921;-57
2023/10/20 12:54:50;;;;;;;;;;;19.30;46.60;;;;;;5050558;28;19921;-56
2023/10/20 12:57:17;;;;;;;;;;;19.30;46.70;;;;;;5047912;28;19932;-57
2023/10/20 12:59:44;;;;;;;;;;;19.30;46.70;;;;;;5049000;28;19960;-56
2023/10/20 13:02:11;;;;;;;;;;;19.30;46.70;;;;;;5047488;28;19971;-57
2023/10/20 13:04:39;;;;;;;;;;;19.40;47.40;;;;;;5044465;28;19971;-56
2023/10/20 13:07:06;;;;;;;;;;;19.40;46.80;;;;;;5046640;28;19929;-56
2023/10/20 13:09:32;;;;;;;;;;;19.40;46.90;;;;;;5045259;28;20039;-56
2023/10/20 13:11:59;;;;;;;;;;;19.40;46.90;;;;;;5045559;28;19921;-57
2023/10/20 13:14:26;;;;;;;;;;;19.40;46.90;;;;;;5047384;28;19971;-57
2023/10/20 13:16:53;;;;;;;;;;;19.40;46.90;;;;;;5042674;28;20258;-58
2023/10/20 13:19:20;;;;;;;;;;;19.40;46.90;;;;;;5045418;28;19921;-57
2023/10/20 13:21:48;;;;;;;;;;;19.40;47.00;;;;;;5047603;28;19962;-56
2023/10/20 13:24:14;;;;;;;;;;;19.40;47.00;;;;;;5047386;28;19924;-57
2023/10/20 13:26:41;;;;;;;;;;;19.40;47.00;;;;;;5042651;28;20476;-57
2023/10/20 13:29:11;;;;;;;;;;;19.40;47.00;;;;;;5046574;28;19932;-56
2023/10/20 13:31:38;;;;;;;;;;;19.40;47.00;;;;;;5049108;28;19924;-54
2023/10/20 13:34:05;;;;;;;;;;;19.50;47.10;;;;;;5052213;28;19967;-56
2023/10/20 13:36:33;;;;;;;;;;;19.50;47.10;;;;;;5052157;28;19921;-58
2023/10/20 13:39:07;;;;;;;;;;;19.50;47.20;;;;;;5045562;28;19925;-54
2023/10/20 13:41:34;;;;;;;;;;;19.50;47.20;;;;;;5051315;28;20309;-56
2023/10/20 13:44:01;;;;;;;;;;;19.40;47.20;;;;;;5053489;28;19964;-56
2023/10/20 13:46:27;;;;;;;;;;;19.50;47.20;;;;;;5052231;28;19921;-56
2023/10/20 13:48:55;;;;;;;;;;;19.50;47.30;;;;;;5046755;28;19978;-55
2023/10/20 13:51:22;;;;;;;;;;;19.50;47.80;;;;;;5047838;28;20378;-57
2023/10/20 13:53:49;;;;;;;;;;;19.50;47.20;;;;;;5052902;28;19970;-56
2023/10/20 13:56:17;;;;;;;;;;;19.50;47.20;;;;;;5048369;28;20215;-56
2023/10/20 13:58:43;;;;;;;;;;;19.50;47.30;;;;;;5051483;28;19924;-56
2023/10/20 14:01:11;;;;;;;;;;;19.50;47.30;;;;;;5044570;28;19921;-56
2023/10/20 14:03:38;;;;;;;;;;;19.50;47.30;;;;;;5049198;28;20341;-57
2023/10/20 14:06:06;;;;;;;;;;;19.50;47.30;;;;;;5049576;28;19970;-57
2023/10/20 14:08:33;;;;;;;;;;;19.50;47.30;;;;;;5044366;28;19944;-57
2023/10/20 14:11:04;;;;;;;;;;;19.50;47.30;;;;;;5053020;28;19970;-56
2023/10/20 14:13:32;;;;;;;;;;;19.50;47.30;;;;;;5040099;28;19921;-55
2023/10/20 14:16:00;;;;;;;;;;;19.50;47.40;;;;;;5050317;28;20206;-57
2023/10/20 14:18:27;;;;;;;;;;;19.50;47.30;;;;;;5051549;28;19928;-57
2023/10/20 14:20:54;;;;;;;;;;;19.50;47.30;;;;;;5051835;28;19983;-57
2023/10/20 14:23:22;;;;;;;;;;;19.60;47.50;;;;;;5050929;28;20015;-58
2023/10/20 14:25:55;;;;;;;;;;;19.60;47.50;;;;;;5044746;28;20349;-57
2023/10/20 14:28:23;;;;;;;;;;;19.60;47.50;;;;;;5050391;28;19935;-56
2023/10/20 14:30:54;;;;;;;;;;;19.60;47.50;;;;;;5049171;28;19921;-56
2023/10/20 14:33:22;;;;;;;;;;;19.60;47.50;;;;;;5052915;28;19928;-57
2023/10/20 14:35:49;;;;;;;;;;;19.60;47.50;;;;;;5048760;28;20015;-54
2023/10/20 14:38:16;;;;;;;;;;;19.60;47.50;;;;;;5050012;28;19947;-54
2023/10/20 14:40:42;;;;;;;;;;;19.60;47.50;;;;;;5049959;28;19920;-57
2023/10/20 14:43:09;;;;;;;;;;;19.60;47.50;;;;;;5046975;28;19932;-57
2023/10/20 14:45:36;;;;;;;;;;;19.60;47.50;;;;;;5043483;28;19955;-57